Latest Weather Observations for Carnarvon

IDW60801

Issued at 4:43 pm WST Sunday 15 December 2019 (issued every 10 minutes, with the page automatically refreshed every 10 minutes)

About weather observations | Map of weather stations | Latest weather observations for WA | Other Formats
Station Details ID: 006011 Name: CARNARVON AIRPORT Lat: -24.89 Lon: 113.67 Height: 4.0 m
Data from the previous 72 hours. | See also: Recent months at Carnarvon
Date/Time
WST
Temp
°C
App
Temp
°C
Dew
Point
°C
Rel
Hum
%
Delta-T
°C
Wind Press
QNH
hPa
Press
MSL
hPa
Rain since
9am
mm
Dir  Spd
km/h
Gust
km/h
Spd
kts
Gust
kts
15/04:30pm 27.0 25.1 20.1 66 4.5 WNW 30 39 16 21 1007.4 1007.4 0.0
15/04:00pm 27.2 25.7 20.3 66 4.5 WNW 28 37 15 20 1007.5 1007.5 0.0
15/03:30pm 28.2 26.9 20.7 63 5.0 WNW 28 37 15 20 1007.8 1007.8 0.0
15/03:00pm 27.9 27.0 21.4 67 4.3 WNW 28 35 15 19 1007.9 1007.9 0.0
15/02:30pm 27.1 30.0 27.1 100 0.0 WNW 26 39 14 21 1008.0 1008.0 0.0
15/02:23pm 27.6 30.5 27.6 100 0.0 WNW 28 39 15 21 1008.1 1008.1 0.0
15/02:18pm 22.3 21.8 21.5 95 0.5 WNW 26 35 14 19 1008.2 1008.2 0.0
15/02:00pm 27.4 25.7 19.7 63 5.0 WNW 28 39 15 21 1008.3 1008.3 0.0
15/01:30pm 27.7 26.1 20.0 63 5.0 WNW 28 41 15 22 1008.3 1008.3 0.0
15/01:00pm 27.4 26.2 20.0 64 4.8 WNW 26 39 14 21 1008.7 1008.7 0.0
15/12:30pm 27.9 26.6 20.7 65 4.8 WNW 28 39 15 21 1008.6 1008.6 0.0
15/12:00pm 27.5 25.7 20.3 65 4.7 WNW 30 41 16 22 1008.7 1008.7 0.0
15/11:30am 27.4 25.8 20.7 67 4.4 WNW 30 41 16 22 1008.8 1008.8 0.0
15/11:00am 26.9 26.5 21.0 70 3.9 WNW 24 37 13 20 1008.9 1008.9 0.0
15/10:30am 27.0 26.3 21.1 70 3.9 WNW 26 35 14 19 1008.8 1008.8 0.0
15/10:00am 26.5 25.7 20.8 71 3.8 WNW 26 35 14 19 1008.5 1008.5 0.0
15/09:30am 26.6 24.7 20.9 71 3.8 WNW 32 43 17 23 1008.4 1008.4 0.0
15/09:28am 26.7 24.7 20.8 70 3.9 WNW 32 41 17 22 1008.4 1008.4 0.0
15/09:11am 25.6 23.5 20.6 74 3.3 NW 32 39 17 21 1008.4 1008.4 0.0
15/09:09am 26.4 24.6 21.2 73 3.4 NW 32 37 17 20 1008.4 1008.4 0.0
15/09:00am 26.1 24.6 20.9 73 3.4 NW 30 39 16 21 1008.3 1008.3 0.0
15/08:52am 25.9 24.4 20.9 74 3.3 NW 30 41 16 22 1008.4 1008.4 0.0
15/08:50am 25.6 23.8 20.4 73 3.4 NW 30 41 16 22 1008.4 1008.4 0.0
15/08:30am 25.8 24.7 21.0 75 3.2 NW 28 33 15 18 1008.3 1008.3 0.0
15/08:00am 25.5 25.3 21.2 77 2.8 NW 24 33 13 18 1008.3 1008.3 0.0
15/07:30am 24.5 24.1 21.0 81 2.3 NW 24 30 13 16 1008.2 1008.2 0.0
15/07:22am 24.7 24.6 21.4 82 2.2 NW 24 33 13 18 1008.1 1008.1 0.0
15/07:00am 24.1 24.0 21.4 85 1.8 NW 24 32 13 17 1007.8 1007.8 0.0
15/06:30am 23.5 24.2 21.6 89 1.3 NW 20 30 11 16 1007.5 1007.5 0.0
15/06:00am 22.8 24.2 22.5 98 0.2 NW 19 26 10 14 1007.5 1007.5 0.0
15/05:59am 22.8 24.2 22.6 99 0.1 NW 19 26 10 14 1007.5 1007.5 0.0
15/05:30am 21.8 24.7 21.8 100 0.0 N 9 15 5 8 1007.4 1007.4 0.0
15/05:00am 21.7 23.8 21.7 100 0.0 N 13 19 7 10 1007.3 1007.3 0.0
15/04:30am 21.2 22.3 21.2 100 0.0 NNW 17 20 9 11 1007.2 1007.2 0.0
15/04:00am 20.9 22.6 20.9 100 0.0 N 13 17 7 9 1007.6 1007.6 0.0
15/03:30am 20.7 22.7 20.7 100 0.0 NNE 11 13 6 7 1007.6 1007.6 0.0
15/03:12am 20.1 22.5 20.1 100 0.0 N 7 9 4 5 1007.8 1007.8 0.0
15/03:00am 20.5 22.7 20.5 100 0.0 N 9 13 5 7 1007.7 1007.7 0.0
15/02:30am 21.9 24.9 21.9 100 0.0 NW 9 11 5 6 1007.9 1007.9 0.0
15/02:00am 22.4 25.1 22.1 98 0.2 WNW 11 17 6 9 1007.7 1007.7 0.0
15/01:30am 22.7 25.0 22.0 96 0.5 WNW 13 19 7 10 1008.0 1008.0 0.0
15/01:18am 22.9 24.9 22.2 96 0.5 W 15 20 8 11 1008.2 1008.2 0.0
15/01:00am 23.0 25.0 22.3 96 0.5 W 15 20 8 11 1008.3 1008.3 0.0
15/12:45am 23.0 25.4 22.2 95 0.5 W 13 15 7 8 1008.5 1008.5 0.0
15/12:37am 23.0 25.4 22.2 95 0.5 W 13 20 7 11 1008.5 1008.5 0.0
15/12:30am 23.1 24.7 22.1 94 0.7 W 17 20 9 11 1008.4 1008.4 0.0
15/12:00am 23.4 26.0 22.6 95 0.5 WSW 13 15 7 8 1008.8 1008.8 0.0
 
Date/Time
WST
Temp
°C
App
Temp
°C
Dew
Point
°C
Rel
Hum
%
Delta-T
°C
Wind Press
QNH
hPa
Press
MSL
hPa
Rain since
9am
mm
Dir  Spd
km/h
Gust
km/h
Spd
kts
Gust
kts
14/11:30pm 23.4 26.4 22.6 95 0.5 W 11 17 6 9 1008.9 1008.9 0.0
14/11:19pm 23.3 25.7 22.3 94 0.7 WSW 13 17 7 9 1008.8 1008.8 0.0
14/11:13pm 23.4 25.9 22.4 94 0.7 W 13 17 7 9 1008.8 1008.8 0.0
14/11:00pm 23.5 26.4 22.5 94 0.7 WSW 11 17 6 9 1009.1 1009.1 0.0
14/10:56pm 23.6 26.7 22.8 95 0.5 SW 11 15 6 8 1009.2 1009.2 0.0
14/10:30pm 23.6 26.3 22.9 96 0.5 WSW 13 17 7 9 1009.2 1009.2 0.0
14/10:00pm 23.7 26.4 22.9 95 0.5 WSW 13 15 7 8 1009.2 1009.2 0.0
14/09:30pm 23.8 26.1 22.8 94 0.7 WSW 15 19 8 10 1008.8 1008.8 0.0
14/09:00pm 23.8 26.9 22.8 94 0.7 W 11 13 6 7 1008.5 1008.5 0.0
14/08:30pm 24.0 26.2 23.3 96 0.5 W 17 22 9 12 1008.2 1008.2 0.0
14/08:00pm 24.1 26.6 23.2 95 0.6 W 15 22 8 12 1008.2 1008.2 0.0
14/07:30pm 24.3 26.3 22.9 92 0.9 WSW 17 20 9 11 1008.3 1008.3 0.0
14/07:00pm 24.9 26.8 22.8 88 1.4 SW 17 20 9 11 1008.1 1008.1 0.0
14/06:30pm 25.6 27.0 22.5 83 2.1 WSW 19 26 10 14 1008.0 1008.0 0.0
14/06:16pm 26.0 27.3 22.7 82 2.2 WSW 20 26 11 14 1007.9 1007.9 0.0
14/06:00pm 26.2 27.1 22.7 81 2.4 WSW 22 30 12 16 1007.9 1007.9 0.0
14/05:38pm 26.7 26.7 23.0 80 2.5 WSW 28 37 15 20 1007.7 1007.7 0.0
14/05:30pm 26.3 25.8 22.8 81 2.4 WSW 30 37 16 20 1007.7 1007.7 0.0
14/05:00pm 26.7 25.9 22.3 77 3.0 WSW 30 39 16 21 1007.8 1007.8 0.0
14/04:30pm 26.5 26.2 22.6 79 2.6 WSW 28 37 15 20 1007.9 1007.9 0.0
14/04:00pm 28.0 28.1 23.2 75 3.3 WSW 28 37 15 20 1008.1 1008.1 0.0
14/03:30pm 27.4 27.9 22.6 75 3.2 W 24 32 13 17 1008.0 1008.0 0.0
14/03:00pm 28.4 28.9 22.6 71 3.9 WSW 24 30 13 16 1008.1 1008.1 0.0
14/02:30pm 28.0 28.7 22.2 70 3.9 W 22 30 12 16 1008.2 1008.2 0.0
14/02:00pm 27.3 27.6 21.6 71 3.8 W 22 30 12 16 1008.5 1008.5 0.0
14/01:30pm 28.2 28.3 21.2 65 4.7 W 22 28 12 15 1008.8 1008.8 0.0
14/01:00pm 27.3 27.9 21.3 69 4.0 W 20 30 11 16 1009.3 1009.3 0.0
14/12:30pm 28.6 29.7 22.3 68 4.3 W 20 26 11 14 1009.5 1009.5 0.0
14/12:00pm 28.3 29.4 22.3 70 4.1 W 20 24 11 13 1009.9 1009.9 0.0
14/11:30am 27.7 29.3 22.2 72 3.7 W 17 24 9 13 1010.2 1010.2 0.0
14/11:00am 27.3 28.2 22.7 76 3.1 W 22 32 12 17 1010.6 1010.6 0.0
14/10:30am 27.0 28.4 22.8 78 2.8 W 20 28 11 15 1010.5 1010.5 0.0
14/10:00am 27.2 28.9 23.4 80 2.6 W 20 30 11 16 1010.7 1010.7 0.0
14/09:30am 27.0 28.6 23.3 80 2.5 W 20 30 11 16 1010.7 1010.7 0.0
14/09:00am 26.3 27.6 22.6 80 2.5 W 20 28 11 15 1010.8 1010.8 0.0
14/08:30am 25.6 26.9 22.7 84 2.0 W 20 28 11 15 1010.7 1010.7 0.0
14/08:28am 25.9 27.5 23.2 85 1.8 W 20 28 11 15 1010.7 1010.7 0.0
14/08:00am 25.6 28.2 24.0 91 1.1 WNW 17 22 9 12 1010.8 1010.8 0.0
14/07:30am 24.5 26.4 23.5 94 0.7 WNW 19 24 10 13 1010.6 1010.6 0.0
14/07:00am 24.2 26.3 23.7 97 0.3 WNW 19 26 10 14 1010.5 1010.5 0.0
14/06:30am 24.1 26.4 24.1 100 0.0 WNW 19 26 10 14 1010.2 1010.2 0.0
14/06:00am 23.8 25.9 23.8 100 0.0 WNW 19 24 10 13 1009.9 1009.9 0.0
14/05:30am 23.7 26.1 23.7 100 0.0 WNW 17 26 9 14 1009.5 1009.5 0.0
14/05:00am 23.8 25.7 23.8 100 0.0 WNW 20 26 11 14 1009.6 1009.6 0.0
14/04:57am 23.8 25.7 23.8 100 0.0 WNW 20 28 11 15 1009.5 1009.5 0.0
14/04:30am 23.9 26.1 23.9 100 0.0 WNW 19 24 10 13 1009.4 1009.4 0.0
14/04:00am 24.0 26.2 24.0 100 0.0 WNW 19 24 10 13 1009.4 1009.4 0.0
14/03:30am 24.1 26.8 24.1 100 0.0 WNW 17 24 9 13 1009.3 1009.3 0.0
14/03:00am 24.1 26.8 24.1 100 0.0 WNW 17 22 9 12 1009.6 1009.6 0.0
14/02:30am 24.0 27.0 24.0 100 0.0 NW 15 20 8 11 1009.6 1009.6 0.0
14/02:00am 24.2 26.9 24.2 100 0.0 WNW 17 22 9 12 1009.4 1009.4 0.0
14/01:30am 24.2 27.7 24.2 100 0.0 WNW 13 17 7 9 1009.8 1009.8 0.0
14/01:00am 24.6 27.7 24.1 97 0.3 WNW 15 20 8 11 1009.9 1009.9 0.0
14/12:30am 24.9 28.1 23.7 93 0.8 W 13 17 7 9 1010.1 1010.1 0.0
14/12:00am 24.9 27.7 23.7 93 0.8 WSW 15 20 8 11 1010.1 1010.1 0.0
 
Date/Time
WST
Temp
°C
App
Temp
°C
Dew
Point
°C
Rel
Hum
%
Delta-T
°C
Wind Press
QNH
hPa
Press
MSL
hPa
Rain since
9am
mm
Dir  Spd
km/h
Gust
km/h
Spd
kts
Gust
kts
13/11:30pm 25.2 28.5 23.8 92 1.0 WSW 13 19 7 10 1010.4 1010.4 0.0
13/11:00pm 25.3 27.7 23.7 91 1.1 SW 17 20 9 11 1010.7 1010.7 0.0
13/10:30pm 25.6 28.3 23.5 88 1.4 SW 15 17 8 9 1011.0 1011.0 0.0
13/10:00pm 25.9 27.7 23.2 85 1.8 SSW 19 24 10 13 1011.0 1011.0 0.0
13/09:30pm 26.0 26.9 23.3 85 1.8 SSW 24 28 13 15 1010.8 1010.8 0.0
13/09:00pm 25.8 27.1 23.3 86 1.7 SSW 22 30 12 16 1010.7 1010.7 0.0
13/08:30pm 25.5 28.4 23.2 87 1.6 SW 13 20 7 11 1010.3 1010.3 0.0
13/08:00pm 25.7 28.1 23.0 85 1.8 WSW 15 20 8 11 1009.9 1009.9 0.0
13/07:30pm 25.9 27.7 23.2 85 1.8 SW 19 26 10 14 1009.6 1009.6 0.0
13/07:00pm 26.3 27.9 23.2 83 2.1 SW 20 28 11 15 1009.4 1009.4 0.0
13/06:30pm 26.9 27.4 22.7 78 2.8 WSW 24 33 13 18 1009.3 1009.3 0.0
13/06:00pm 27.7 28.0 22.2 72 3.7 SW 24 32 13 17 1009.2 1009.2 0.0
13/05:30pm 28.3 27.9 21.6 67 4.5 WSW 26 35 14 19 1008.9 1008.9 0.0
13/05:00pm 28.1 28.2 23.2 74 3.3 WSW 28 39 15 21 1008.6 1008.6 0.0
13/04:30pm 27.9 27.3 23.3 76 3.1 WSW 32 41 17 22 1008.2 1008.2 0.0
13/04:00pm 27.5 27.1 23.7 80 2.6 WSW 32 41 17 22 1008.4 1008.4 0.0
13/03:30pm 28.7 27.2 23.4 73 3.6 WSW 37 46 20 25 1008.6 1008.6 0.0
13/03:00pm 28.8 27.7 23.5 73 3.6 WSW 35 46 19 25 1008.7 1008.7 0.0
13/02:30pm 28.5 27.7 23.0 72 3.8 WSW 32 41 17 22 1008.9 1008.9 0.0
13/02:00pm 28.6 28.4 22.8 71 3.9 WSW 28 37 15 20 1009.3 1009.3 0.0
13/01:30pm 30.3 31.4 23.0 65 5.0 WSW 22 32 12 17 1009.5 1009.5 0.0
13/01:00pm 30.8 32.6 23.5 65 5.0 WSW 20 28 11 15 1009.9 1009.9 0.0
13/12:30pm 28.9 29.9 22.9 70 4.1 WSW 22 30 12 16 1010.3 1010.3 0.0
13/12:00pm 28.9 29.9 22.9 70 4.1 WSW 22 26 12 14 1010.8 1010.8 0.0
13/11:30am 30.4 32.2 24.3 70 4.3 SW 22 28 12 15 1011.1 1011.1 0.0
13/11:00am 28.9 30.5 23.3 72 3.8 SW 20 28 11 15 1011.3 1011.3 0.0
13/10:30am 28.9 30.9 24.5 77 3.1 SW 22 28 12 15 1011.5 1011.5 0.0
13/10:00am 28.4 29.9 24.4 79 2.8 SW 24 28 13 15 1011.7 1011.7 0.0
13/09:30am 28.4 30.6 24.8 81 2.5 SW 22 28 12 15 1011.7 1011.7 0.0
13/09:00am 27.7 29.8 24.1 81 2.5 SW 20 24 11 13 1011.6 1011.6 0.0
13/08:30am 27.9 30.0 24.1 80 2.6 SSW 20 26 11 14 1011.7 1011.7 0.0
13/08:00am 27.2 29.5 24.1 83 2.1 SSW 19 24 10 13 1011.6 1011.6 0.0
13/07:30am 26.5 28.9 24.2 87 1.6 SSW 19 24 10 13 1011.5 1011.5 0.0
13/07:00am 25.9 28.3 24.3 91 1.1 SSW 19 22 10 12 1011.2 1011.2 0.0
13/06:30am 25.3 28.4 24.8 97 0.3 SSW 17 20 9 11 1011.1 1011.1 0.0
13/06:00am 24.4 27.3 24.4 100 0.0 SW 17 20 9 11 1010.5 1010.5 0.0
13/05:30am 24.1 26.8 24.1 100 0.0 SW 17 20 9 11 1010.1 1010.1 0.0
13/05:00am 24.2 26.9 24.2 100 0.0 SW 17 22 9 12 1010.1 1010.1 0.0
13/04:30am 24.2 27.3 24.2 100 0.0 SW 15 20 8 11 1009.9 1009.9 0.0
13/04:00am 24.2 26.9 24.2 100 0.0 SW 17 20 9 11 1009.9 1009.9 0.0
13/03:30am 24.3 27.5 24.3 100 0.0 SW 15 22 8 12 1010.0 1010.0 0.0
13/03:00am 24.4 27.3 24.4 100 0.0 SW 17 20 9 11 1010.0 1010.0 0.0
13/02:30am 24.5 27.7 24.3 99 0.1 SW 15 20 8 11 1010.2 1010.2 0.0
13/02:00am 24.7 28.0 24.5 99 0.1 SW 15 20 8 11 1010.4 1010.4 0.0
13/01:30am 24.8 27.9 24.8 100 0.0 SW 17 22 9 12 1010.7 1010.7 0.0
13/01:00am 25.0 27.7 24.7 98 0.2 SW 19 24 10 13 1011.1 1011.1 0.0
13/12:30am 25.3 27.7 24.6 96 0.5 SSW 20 28 11 15 1011.4 1011.4 0.0
13/12:00am 25.1 27.4 24.1 94 0.7 SW 19 28 10 15 1011.5 1011.5 0.0
 
Date/Time
WST
Temp
°C
App
Temp
°C
Dew
Point
°C
Rel
Hum
%
Delta-T
°C
Wind Press
QNH
hPa
Press
MSL
hPa
Rain since
9am
mm
Dir  Spd
km/h
Gust
km/h
Spd
kts
Gust
kts
12/11:30pm 25.5 27.9 23.7 90 1.2 WSW 17 20 9 11 1011.3 1011.3 0.0
12/11:00pm 26.0 28.1 23.7 87 1.6 SSW 19 24 10 13 1011.6 1011.6 0.0
12/10:30pm 26.1 28.6 23.8 87 1.6 SSW 17 20 9 11 1011.8 1011.8 0.0
12/10:00pm 26.4 29.0 23.9 86 1.7 SSW 17 20 9 11 1011.5 1011.5 0.0
12/09:30pm 26.3 26.9 22.8 81 2.4 SSW 24 30 13 16 1011.4 1011.4 0.0
12/09:00pm 25.9 27.2 22.6 82 2.2 SW 20 28 11 15 1011.3 1011.3 0.0
12/08:30pm 25.9 27.7 22.6 82 2.2 SW 17 24 9 13 1011.0 1011.0 0.0
12/08:00pm 26.1 27.3 22.2 79 2.6 WSW 19 24 10 13 1010.5 1010.5 0.0
12/07:30pm 26.3 27.2 21.9 77 2.9 WSW 20 24 11 13 1010.4 1010.4 0.0
12/07:00pm 26.7 27.4 21.5 73 3.5 SW 20 26 11 14 1010.1 1010.1 0.0
12/06:30pm 27.6 28.6 22.1 72 3.7 SW 20 28 11 15 1010.3 1010.3 0.0
12/06:00pm 29.0 29.0 21.0 62 5.3 SW 22 28 12 15 1009.9 1009.9 0.0
12/05:30pm 30.7 29.8 19.1 50 7.5 SW 22 32 12 17 1009.7 1009.7 0.0
12/05:00pm 31.7 30.5 18.3 45 8.6 SW 22 30 12 16 1009.5 1009.5 0.0

Other formats

Comma delimited format used in spreadsheet applications
http://www.bom.gov.au/fwo/IDW60801/IDW60801.94300.axf

JavaScript Object Notation format (JSON) in row-major order
http://www.bom.gov.au/fwo/IDW60801/IDW60801.94300.json

Data quality

Most of these data are generated automatically and are frequently updated. Quality checks on data are not normally performed. It is possible for incorrect values to appear. Refer to information at About Latest Weather Observations and please check the disclaimer before using these data.